Flight Track Log - Related Links

Times and Time Zones

All times are in EDT time to prevent confusion due to time zone crossing. See the CPA71 flight status page for this flight to view local times or setup timezone preferences in your user account.

Time Position Orientation Groundspeed Altitude Reporting Facility
EDT Latitude Longitude Course Direction KTS MPH feet Rate Location/Type
Tue 01:08:00 AM 61.3837 -151.5591 286° West  Level Estimated
Tue 01:09:00 AM 61.4122 -151.7838 285° West  Level Estimated
Tue 01:10:00 AM 61.4403 -152.0088 285° West  Level Estimated
Tue 01:11:00 AM 61.4680 -152.2343 285° West  Level Estimated
Tue 01:12:00 AM 61.4954 -152.4602 284° West  Level Estimated
Tue 01:13:00 AM 61.5224 -152.6864 284° West  Level Estimated
Tue 01:14:00 AM 61.5490 -152.9131 284° West  Level Estimated
Tue 01:15:00 AM 61.5752 -153.1402 284° West  Level Estimated
Tue 01:16:00 AM 61.6011 -153.3676 284° West  Level Estimated
Tue 01:17:00 AM 61.6266 -153.5954 283° West  Level Estimated
Tue 01:18:00 AM 61.6517 -153.8236 283° West  Level Estimated
Tue 01:19:00 AM 61.6764 -154.0521 283° West  Level Estimated
Tue 01:20:00 AM 61.7007 -154.2810 283° West  Level Estimated
Tue 01:21:00 AM 61.7247 -154.5103 283° West  Level Estimated
Tue 01:22:00 AM 61.7483 -154.7399 282° West  Level Estimated
Tue 01:23:00 AM 61.7715 -154.9699 282° West  Level Estimated
Tue 01:24:00 AM 61.7943 -155.2002 282° West  Level Estimated
Tue 01:25:00 AM 61.8167 -155.4309 282° West  Level Estimated
Tue 01:26:00 AM 61.8387 -155.6619 282° West  Level Estimated
Tue 01:27:00 AM 61.8604 -155.8932 281° West  Level Estimated
Tue 01:28:00 AM 61.8816 -156.1248 281° West  Level Estimated
Tue 01:29:00 AM 61.9025 -156.3568 281° West  Level Estimated
Tue 01:30:00 AM 61.9229 -156.5891 281° West  Level Estimated
Tue 01:31:00 AM 61.9430 -156.8216 281° West  Level Estimated
Tue 01:32:00 AM 61.9627 -157.0545 280° West  Level Estimated
Tue 01:33:00 AM 61.9820 -157.2877 280° West  Level Estimated
Tue 01:34:00 AM 62.0009 -157.5212 280° West  Level Estimated
Tue 01:35:00 AM 62.0194 -157.7549 280° West  Level Estimated
Tue 01:36:00 AM 62.0375 -157.9890 279° West  Level Estimated
Tue 01:37:00 AM 62.0552 -158.2233 279° West  Level Estimated
Tue 01:38:00 AM 62.0726 -158.4579 279° West  Level Estimated
Tue 01:39:00 AM 62.0895 -158.6927 279° West  Level Estimated
Tue 01:40:00 AM 62.1060 -158.9279 279° West  Level Estimated
Tue 01:41:00 AM 62.1221 -159.1632 278° West  Level Estimated
Tue 01:42:00 AM 62.1379 -159.3988 278° West  Level Estimated
Tue 01:43:00 AM 62.1532 -159.6347 278° West  Level Estimated
Tue 01:44:00 AM 62.1681 -159.8708 278° West  Level Estimated
Tue 01:45:00 AM 62.1826 -160.1071 278° West  Level Estimated
Tue 01:46:00 AM 62.1967 -160.3436 277° West  Level Estimated
Tue 01:47:00 AM 62.2104 -160.5804 277° West  Level Estimated
Tue 01:48:00 AM 62.2238 -160.8174 277° West  Level Estimated
Tue 01:49:00 AM 62.2366 -161.0546 277° West  Level Estimated
Tue 01:50:00 AM 62.2491 -161.2919 277° West  Level Estimated
Tue 01:51:00 AM 62.2612 -161.5295 276° West  Level Estimated
Tue 01:52:00 AM 62.2729 -161.7673 276° West  Level Estimated
Tue 01:53:00 AM 62.2842 -162.0052 276° West  Level Estimated
Tue 01:54:00 AM 62.2951 -162.2433 276° West  Level Estimated
Tue 01:55:00 AM 62.3055 -162.4816 276° West  Level Estimated
Tue 01:56:00 AM 62.3156 -162.7201 275° West  Level Estimated
Tue 01:57:00 AM 62.3253 -162.9587 275° West  Level Estimated
Tue 01:58:00 AM 62.3345 -163.1974 275° West  Level Estimated
Tue 01:59:00 AM 62.3433 -163.4364 275° West  Level Estimated
Tue 02:00:00 AM 62.3517 -163.6754 274° West  Level Estimated
Tue 02:01:00 AM 62.3598 -163.9146 274° West  Level Estimated
Tue 02:02:00 AM 62.3674 -164.1539 274° West  Level Estimated
Tue 02:03:00 AM 62.3745 -164.3933 274° West  Level Estimated
Tue 02:04:00 AM 62.3813 -164.6328 274° West  Level Estimated
Tue 02:05:00 AM 62.3877 -164.8724 273° West  Level Estimated
Tue 02:06:00 AM 62.3937 -165.1121 273° West  Level Estimated
Tue 02:07:00 AM 62.3992 -165.3520 273° West  Level Estimated
Tue 02:08:00 AM 62.4043 -165.5919 273° West  Level Estimated
Tue 02:09:00 AM 62.4090 -165.8318 273° West  Level Estimated
Tue 02:10:00 AM 62.4134 -166.0719 272° West  Level Estimated
Tue 02:11:00 AM 62.4173 -166.3120 272° West  Level Estimated
Tue 02:12:00 AM 62.4207 -166.5522 272° West  Level Estimated
Tue 02:13:00 AM 62.4238 -166.7924 272° West  Level Estimated
Tue 02:14:00 AM 62.4264 -167.0327 271° West  Level Estimated
Tue 02:15:00 AM 62.4287 -167.2730 271° West  Level Estimated
Tue 02:16:00 AM 62.4305 -167.5134 271° West  Level Estimated
Tue 02:17:00 AM 62.4319 -167.7538 271° West  Level Estimated
Tue 02:18:00 AM 62.4329 -167.9942 271° West  Level Estimated
Tue 02:19:00 AM 62.4335 -168.2346 270° West  Level Estimated
Tue 02:20:00 AM 62.4337 -168.4750 270° West  Level Estimated
Tue 02:21:00 AM 62.4334 -168.7154 270° West  Level Estimated
Tue 02:22:00 AM 62.4328 -168.9558 270° West  Level Estimated
Tue 02:23:00 AM 62.4317 -169.1962 270° West  Level Estimated
Tue 02:24:00 AM 62.4302 -169.4366 269° West  Level Estimated
Tue 02:25:00 AM 62.4283 -169.6769 269° West  Level Estimated
Tue 02:26:00 AM 62.4260 -169.9172 269° West  Level Estimated
Tue 02:27:00 AM 62.4233 -170.1575 269° West  Level Estimated
Tue 02:28:00 AM 62.4202 -170.3977 268° West  Level Estimated
Tue 02:29:00 AM 62.4166 -170.6379 268° West  Level Estimated
Tue 02:30:00 AM 62.4126 -170.8780 268° West  Level Estimated
Tue 02:31:00 AM 62.4082 -171.1180 268° West  Level Estimated
Tue 02:32:00 AM 62.4035 -171.3580 268° West  Level Estimated
Tue 02:33:00 AM 62.3983 -171.5979 267° West  Level Estimated
Tue 02:34:00 AM 62.3926 -171.8377 267° West  Level Estimated
Tue 02:35:00 AM 62.3866 -172.0774 267° West  Level Estimated
Tue 02:36:00 AM 62.3802 -172.3170 267° West  Level Estimated
Tue 02:37:00 AM 62.3733 -172.5565 267° West  Level Estimated
Tue 02:38:00 AM 62.3661 -172.7959 266° West  Level Estimated
Tue 02:39:00 AM 62.3584 -173.0352 266° West  Level Estimated
Tue 02:40:00 AM 62.3503 -173.2743 266° West  Level Estimated
Tue 02:41:00 AM 62.3418 -173.5133 266° West  Level Estimated
Tue 02:42:00 AM 62.3329 -173.7522 266° West  Level Estimated
Tue 02:43:00 AM 62.3236 -173.9909 265° West  Level Estimated
Tue 02:44:00 AM 62.3139 -174.2295 265° West  Level Estimated
Tue 02:45:00 AM 62.3038 -174.4679 265° West  Level Estimated
Tue 02:46:00 AM 62.2932 -174.7062 265° West  Level Estimated
Tue 02:47:00 AM 62.2823 -174.9443 264° West  Level Estimated
Tue 02:48:00 AM 62.2709 -175.1822 264° West  Level Estimated
Tue 02:49:00 AM 62.2592 -175.4199 264° West  Level Estimated
Tue 02:50:00 AM 62.2470 -175.6575 264° West  Level Estimated
Tue 02:51:00 AM 62.2344 -175.8948 264° West  Level Estimated
Tue 02:52:00 AM 62.2215 -176.1320 263° West  Level Estimated
Tue 02:53:00 AM 62.2081 -176.3689 263° West  Level Estimated
Tue 02:54:00 AM 62.1943 -176.6056 263° West  Level Estimated
Tue 02:55:00 AM 62.1801 -176.8421 263° West  Level Estimated
Tue 02:56:00 AM 62.1655 -177.0784 263° West  Level Estimated
Tue 02:57:00 AM 62.1505 -177.3145 262° West  Level Estimated
Tue 02:58:00 AM 62.1351 -177.5503 262° West  Level Estimated
Tue 02:59:00 AM 62.1194 -177.7859 262° West  Level Estimated
Tue 03:00:00 AM 62.1032 -178.0212 262° West  Level Estimated
Tue 03:01:00 AM 62.0866 -178.2563 262° West  Level Estimated
Tue 03:02:00 AM 62.0696 -178.4911 261° West  Level Estimated
Tue 03:03:00 AM 62.0522 -178.7256 261° West  Level Estimated
Tue 03:04:00 AM 62.0344 -178.9599 261° West  Level Estimated
Tue 03:05:00 AM 62.0162 -179.1939 261° West  Level Estimated
Tue 03:06:00 AM 61.9976 -179.4276 260° West  Level Estimated
Tue 03:07:00 AM 61.9787 -179.6610 260° West  Level Estimated
Tue 03:08:00 AM 61.9593 -179.8941 260° West  Level Estimated
Tue 03:09:00 AM 61.9395 179.8730 260° West  Level Estimated
Tue 03:10:00 AM 61.9194 179.6405 260° West  Level Estimated
Tue 03:11:00 AM 61.8988 179.4083 259° West  Level Estimated
Tue 03:12:00 AM 61.8779 179.1764 259° West  Level Estimated
Tue 03:13:00 AM 61.8566 178.9448 259° West  Level Estimated
Tue 03:14:00 AM 61.8349 178.7135 259° West  Level Estimated
Tue 03:15:00 AM 61.8128 178.4826 259° West  Level Estimated
Tue 03:16:00 AM 61.7903 178.2520 258° West  Level Estimated
Tue 03:17:00 AM 61.7674 178.0217 258° West  Level Estimated
Tue 03:18:00 AM 61.7442 177.7918 258° West  Level Estimated
Tue 03:19:00 AM 61.7205 177.5623 258° West  Level Estimated
Tue 03:20:00 AM 61.6965 177.3331 258° West  Level Estimated
Tue 03:21:00 AM 61.6721 177.1042 257° West  Level Estimated
Tue 03:22:00 AM 61.6473 176.8757 257° West  Level Estimated
Tue 03:23:00 AM 61.6221 176.6476 257° West  Level Estimated
Tue 03:24:00 AM 61.5966 176.4199 257° West  Level Estimated
Tue 03:25:00 AM 61.5707 176.1925 257° West  Level Estimated
Tue 03:26:00 AM 61.5444 175.9655 256° West  Level Estimated
Tue 03:27:00 AM 61.5177 175.7390 256° West  Level Estimated
Tue 03:28:00 AM 61.4906 175.5128 256° West  Level Estimated
Tue 03:29:00 AM 61.4632 175.2870 256° West  Level Estimated
Tue 03:30:00 AM 61.4354 175.0615 256° West  Level Estimated
Tue 03:31:00 AM 61.4072 174.8365 255° West  Level Estimated
Tue 03:32:00 AM 61.3787 174.6120 255° West  Level Estimated
Tue 03:33:00 AM 61.3498 174.3878 255° West  Level Estimated
Tue 03:34:00 AM 61.3205 174.1640 255° West  Level Estimated
Tue 03:35:00 AM 61.2909 173.9407 255° West  Level Estimated
Tue 03:36:00 AM 61.2608 173.7177 254° West  Level Estimated
Tue 03:37:00 AM 61.2305 173.4953 254° West  Level Estimated
Tue 03:38:00 AM 61.1997 173.2732 254° West  Level Estimated
Tue 03:39:00 AM 61.1686 173.0516 254° West  Level Estimated
Tue 03:40:00 AM 61.1371 172.8304 254° West  Level Estimated
Tue 03:41:00 AM 61.1053 172.6097 253° West  Level Estimated
Tue 03:42:00 AM 61.0731 172.3894 253° West  Level Estimated
Tue 03:43:00 AM 61.0406 172.1695 253° West  Level Estimated
Tue 03:44:00 AM 61.0077 171.9501 253° West  Level Estimated
Tue 03:45:00 AM 60.9744 171.7312 253° West  Level Estimated
Tue 03:46:00 AM 60.9408 171.5127 253° West  Level Estimated
Tue 03:47:00 AM 60.9068 171.2947 252° West  Level Estimated
Tue 03:48:00 AM 60.8725 171.0771 252° West  Level Estimated
Tue 03:49:00 AM 60.8379 170.8601 252° West  Level Estimated
Tue 03:50:00 AM 60.8029 170.6435 252° West  Level Estimated
Tue 03:51:00 AM 60.7675 170.4273 252° West  Level Estimated
Tue 03:52:00 AM 60.7318 170.2117 251° West  Level Estimated
Tue 03:53:00 AM 60.6957 169.9965 251° West  Level Estimated
Tue 03:54:00 AM 60.6593 169.7818 251° West  Level Estimated
Tue 03:55:00 AM 60.6226 169.5676 251° West  Level Estimated
Tue 03:56:00 AM 60.5855 169.3539 251° West  Level Estimated
Tue 03:57:00 AM 60.5481 169.1407 250° West  Level Estimated
Tue 03:58:00 AM 60.5103 168.9280 250° West  Level Estimated
Tue 03:59:00 AM 60.4722 168.7158 250° West  Level Estimated
Tue 04:00:00 AM 60.4338 168.5040 250° West  Level Estimated
Tue 04:01:00 AM 60.3950 168.2928 250° West  Level Estimated
Tue 04:02:00 AM 60.3559 168.0821 250° West  Level Estimated
Tue 04:03:00 AM 60.3165 167.8719 249° West  Level Estimated
Tue 04:04:00 AM 60.2767 167.6622 249° West  Level Estimated
Tue 04:05:00 AM 60.2366 167.4530 249° West  Level Estimated
Tue 04:06:00 AM 60.1962 167.2443 249° West  Level Estimated
Tue 04:07:00 AM 60.1554 167.0362 249° West  Level Estimated
Tue 04:08:00 AM 60.1144 166.8285 248° West  Level Estimated
Tue 04:09:00 AM 60.0730 166.6214 248° West  Level Estimated
Tue 04:10:00 AM 60.0312 166.4148 248° West  Level Estimated
Tue 04:11:00 AM 59.9892 166.2087 248° West  Level Estimated
Tue 04:12:00 AM 59.9468 166.0032 248° West  Level Estimated
Tue 04:13:00 AM 59.9041 165.7981 248° West  Level Estimated
Tue 04:14:00 AM 59.8611 165.5936 247° West  Level Estimated
Tue 04:15:00 AM 59.8178 165.3897 247° West  Level Estimated
Tue 04:16:00 AM 59.7742 165.1862 247° West  Level Estimated
Tue 04:17:00 AM 59.7302 164.9833 247° West  Level Estimated
Tue 04:18:00 AM 59.6860 164.7810 247° West  Level Estimated
Tue 04:19:00 AM 59.6414 164.5791 246° West  Level Estimated
Tue 04:20:00 AM 59.5965 164.3778 246° West  Level Estimated
Tue 04:21:00 AM 59.5513 164.1771 246° West  Level Estimated
Tue 04:22:00 AM 59.5058 163.9769 246° West  Level Estimated
Tue 04:23:00 AM 59.4600 163.7772 246° West  Level Estimated
Tue 04:24:00 AM 59.4139 163.5780 246° West  Level Estimated
Tue 04:25:00 AM 59.3675 163.3795 245° Southwest  Level Estimated
Tue 04:26:00 AM 59.3208 163.1814 245° Southwest  Level Estimated
Tue 04:27:00 AM 59.2738 162.9839 245° Southwest  Level Estimated
Tue 04:28:00 AM 59.2265 162.7869 245° Southwest  Level Estimated
Tue 04:29:00 AM 59.1789 162.5905 245° Southwest  Level Estimated
Tue 04:30:00 AM 59.1310 162.3947 245° Southwest  Level Estimated
Tue 04:31:00 AM 59.0828 162.1994 244° Southwest  Level Estimated
Tue 04:32:00 AM 59.0343 162.0046 244° Southwest  Level Estimated
Tue 04:33:00 AM 58.9856 161.8104 244° Southwest  Level Estimated
Tue 04:34:00 AM 58.9365 161.6167 244° Southwest  Level Estimated
Tue 04:35:00 AM 58.8871 161.4236 244° Southwest  Level Estimated
Tue 04:36:00 AM 58.8375 161.2311 244° Southwest  Level Estimated
Tue 04:37:00 AM 58.7876 161.0390 243° Southwest  Level Estimated
Tue 04:38:00 AM 58.7374 160.8476 243° Southwest  Level Estimated
Tue 04:39:00 AM 58.6869 160.6567 243° Southwest  Level Estimated
Tue 04:40:00 AM 58.6361 160.4664 243° Southwest  Level Estimated
Tue 04:41:00 AM 58.5851 160.2766 243° Southwest  Level Estimated
Tue 04:42:00 AM 58.5337 160.0873 243° Southwest  Level Estimated
Tue 04:43:00 AM 58.4821 159.8987 242° Southwest  Level Estimated
Tue 04:44:00 AM 58.4302 159.7105 242° Southwest  Level Estimated
Tue 04:45:00 AM 58.3781 159.5229 242° Southwest  Level Estimated
Tue 04:46:00 AM 58.3256 159.3359 242° Southwest  Level Estimated
Tue 04:47:00 AM 58.2729 159.1495 242° Southwest  Level Estimated
Tue 04:48:00 AM 58.2199 158.9636 242° Southwest  Level Estimated
Tue 04:49:00 AM 58.1667 158.7782 241° Southwest  Level Estimated
Tue 04:50:00 AM 58.1132 158.5934 241° Southwest  Level Estimated
Tue 04:51:00 AM 58.0594 158.4092 241° Southwest  Level Estimated
Tue 04:52:00 AM 58.0053 158.2255 241° Southwest  Level Estimated
Tue 04:53:00 AM 57.9510 158.0424 241° Southwest  Level Estimated
Tue 04:54:00 AM 57.8965 157.8598 241° Southwest  Level Estimated
Tue 04:55:00 AM 57.8416 157.6778 241° Southwest  Level Estimated
Tue 04:56:00 AM 57.7865 157.4963 240° Southwest  Level Estimated
Tue 04:57:00 AM 57.7312 157.3154 240° Southwest  Level Estimated
Tue 04:58:00 AM 57.6756 157.1351 240° Southwest  Level Estimated
Tue 04:59:00 AM 57.6197 156.9552 240° Southwest  Level Estimated
Tue 05:00:00 AM 57.5636 156.7760 240° Southwest  Level Estimated
Tue 05:01:00 AM 57.5072 156.5973 240° Southwest  Level Estimated
Tue 05:02:00 AM 57.4506 156.4192 239° Southwest  Level Estimated
Tue 05:03:00 AM 57.3937 156.2416 239° Southwest  Level Estimated
Tue 05:04:00 AM 57.3366 156.0645 239° Southwest  Level Estimated
Tue 05:05:00 AM 57.2793 155.8880 239° Southwest  Level Estimated
Tue 05:06:00 AM 57.2216 155.7121 239° Southwest  Level Estimated
Tue 05:07:00 AM 57.1638 155.5367 239° Southwest  Level Estimated
Tue 05:08:00 AM 57.1057 155.3619 239° Southwest  Level Estimated
Tue 05:09:00 AM 57.0473 155.1876 238° Southwest  Level Estimated
Tue 05:10:00 AM 56.9887 155.0138 238° Southwest  Level Estimated
Tue 05:11:00 AM 56.9299 154.8406 238° Southwest  Level Estimated
Tue 05:12:00 AM 56.8708 154.6680 238° Southwest  Level Estimated
Tue 05:13:00 AM 56.8115 154.4959 238° Southwest  Level Estimated
Tue 05:14:00 AM 56.7520 154.3243 238° Southwest  Level Estimated
Tue 05:15:00 AM 56.6922 154.1533 238° Southwest  Level Estimated
Tue 05:16:00 AM 56.6322 153.9828 237° Southwest  Level Estimated
Tue 05:17:00 AM 56.5719 153.8129 237° Southwest  Level Estimated
Tue 05:18:00 AM 56.5115 153.6435 237° Southwest  Level Estimated
Tue 05:19:00 AM 56.4508 153.4747 237° Southwest  Level Estimated
Tue 05:20:00 AM 56.3899 153.3064 237° Southwest  Level Estimated
Tue 05:21:00 AM 56.3287 153.1386 237° Southwest  Level Estimated
Tue 05:22:00 AM 56.2673 152.9714 237° Southwest  Level Estimated
Tue 05:23:00 AM 56.2057 152.8047 236° Southwest  Level Estimated
Tue 05:24:00 AM 56.1439 152.6385 236° Southwest  Level Estimated
Tue 05:25:00 AM 56.0818 152.4729 236° Southwest  Level Estimated
Tue 05:26:00 AM 56.0195 152.3078 236° Southwest  Level Estimated
Tue 05:27:00 AM 55.9570 152.1432 236° Southwest  Level Estimated
Tue 05:28:00 AM 55.8943 151.9792 236° Southwest  Level Estimated
Tue 05:29:00 AM 55.8314 151.8157 236° Southwest  Level Estimated
Tue 05:30:00 AM 55.7682 151.6528 235° Southwest  Level Estimated
Tue 05:31:00 AM 55.7049 151.4903 235° Southwest  Level Estimated
Tue 05:32:00 AM 55.6413 151.3284 235° Southwest  Level Estimated
Tue 05:33:00 AM 55.5775 151.1670 235° Southwest  Level Estimated
Tue 05:34:00 AM 55.5135 151.0062 235° Southwest  Level Estimated
Tue 05:35:00 AM 55.4493 150.8458 235° Southwest  Level Estimated
Tue 05:36:00 AM 55.3849 150.6860 235° Southwest  Level Estimated
Tue 05:37:00 AM 55.3202 150.5267 235° Southwest  Level Estimated
Tue 05:38:00 AM 55.2554 150.3679 234° Southwest  Level Estimated
Tue 05:39:00 AM 55.1904 150.2097 234° Southwest  Level Estimated
Tue 05:40:00 AM 55.1251 150.0519 234° Southwest  Level Estimated
Tue 05:41:00 AM 55.0597 149.8947 234° Southwest  Level Estimated
Tue 05:42:00 AM 54.9940 149.7380 234° Southwest  Level Estimated
Tue 05:43:00 AM 54.9282 149.5818 234° Southwest  Level Estimated
Tue 05:44:00 AM 54.8621 149.4261 234° Southwest  Level Estimated
Tue 05:45:00 AM 54.7959 149.2709 234° Southwest  Level Estimated
Tue 05:46:00 AM 54.7294 149.1162 233° Southwest  Level Estimated
Tue 05:47:00 AM 54.6628 148.9621 233° Southwest  Level Estimated
Tue 05:48:00 AM 54.5960 148.8084 233° Southwest  Level Estimated
Tue 05:49:00 AM 54.5289 148.6553 233° Southwest  Level Estimated
Tue 05:50:00 AM 54.4617 148.5026 233° Southwest  Level Estimated
Tue 05:51:00 AM 54.3943 148.3505 233° Southwest  Level Estimated
Tue 05:52:00 AM 54.3267 148.1988 233° Southwest  Level Estimated
Tue 05:53:00 AM 54.2589 148.0477 233° Southwest  Level Estimated
Tue 05:54:00 AM 54.1909 147.8970 232° Southwest  Level Estimated
Tue 05:55:00 AM 54.1227 147.7469 232° Southwest  Level Estimated
Tue 05:56:00 AM 54.0544 147.5972 232° Southwest  Level Estimated
Tue 05:57:00 AM 53.9858 147.4480 232° Southwest  Level Estimated
Tue 05:58:00 AM 53.9171 147.2993 232° Southwest  Level Estimated
Tue 05:59:00 AM 53.8482 147.1512 232° Southwest  Level Estimated
Tue 06:00:00 AM 53.7791 147.0035 232° Southwest  Level Estimated
Tue 06:01:00 AM 53.7098 146.8562 232° Southwest  Level Estimated
Tue 06:02:00 AM 53.6404 146.7095 231° Southwest  Level Estimated
Tue 06:03:00 AM 53.5708 146.5633 231° Southwest  Level Estimated
Tue 06:04:00 AM 53.5009 146.4175 231° Southwest  Level Estimated
Tue 06:05:00 AM 53.4310 146.2722 231° Southwest  Level Estimated
Tue 06:06:00 AM 53.3608 146.1274 231° Southwest  Level Estimated
Tue 06:07:00 AM 53.2905 145.9831 231° Southwest  Level Estimated
Tue 06:08:00 AM 53.2200 145.8392 231° Southwest  Level Estimated
Tue 06:09:00 AM 53.1493 145.6958 231° Southwest  Level Estimated
Tue 06:10:00 AM 53.0784 145.5529 231° Southwest  Level Estimated
Tue 06:11:00 AM 53.0074 145.4105 230° Southwest  Level Estimated
Tue 06:12:00 AM 52.9362 145.2685 230° Southwest  Level Estimated
Tue 06:13:00 AM 52.8648 145.1270 230° Southwest  Level Estimated
Tue 06:14:00 AM 52.7933 144.9859 230° Southwest  Level Estimated
Tue 06:15:00 AM 52.7216 144.8454 230° Southwest  Level Estimated
Tue 06:16:00 AM 52.6498 144.7052 230° Southwest  Level Estimated
Tue 06:17:00 AM 52.5777 144.5656 230° Southwest  Level Estimated
Tue 06:18:00 AM 52.5055 144.4264 230° Southwest  Level Estimated
Tue 06:19:00 AM 52.4332 144.2876 229° Southwest  Level Estimated
Tue 06:20:00 AM 52.3607 144.1494 229° Southwest  Level Estimated
Tue 06:21:00 AM 52.2880 144.0115 229° Southwest  Level Estimated
Tue 06:22:00 AM 52.2151 143.8741 229° Southwest  Level Estimated
Tue 06:23:00 AM 52.1422 143.7372 229° Southwest  Level Estimated
Tue 06:24:00 AM 52.0690 143.6007 229° Southwest  Level Estimated
Tue 06:25:00 AM 51.9957 143.4647 229° Southwest  Level Estimated
Tue 06:26:00 AM 51.9222 143.3291 229° Southwest  Level Estimated
Tue 06:27:00 AM 51.8486 143.1940 229° Southwest  Level Estimated
Tue 06:28:00 AM 51.7748 143.0593 229° Southwest  Level Estimated
Tue 06:29:00 AM 51.7009 142.9250 228° Southwest  Level Estimated
Tue 06:30:00 AM 51.6268 142.7912 228° Southwest  Level Estimated
Tue 06:31:00 AM 51.5526 142.6578 228° Southwest  Level Estimated
Tue 06:32:00 AM 51.4782 142.5249 228° Southwest  Level Estimated
Tue 06:33:00 AM 51.4037 142.3923 228° Southwest  Level Estimated
Tue 06:34:00 AM 51.3290 142.2603 228° Southwest  Level Estimated
Tue 06:35:00 AM 51.2542 142.1286 228° Southwest  Level Estimated
Tue 06:36:00 AM 51.1792 141.9974 228° Southwest  Level Estimated
Tue 06:37:00 AM 51.1041 141.8666 228° Southwest  Level Estimated
Tue 06:38:00 AM 51.0288 141.7362 227° Southwest  Level Estimated
Tue 06:39:00 AM 50.9534 141.6062 227° Southwest  Level Estimated
Tue 06:40:00 AM 50.8778 141.4767 227° Southwest  Level Estimated
Tue 06:41:00 AM 50.8021 141.3476 227° Southwest  Level Estimated
Tue 06:42:00 AM 50.7263 141.2189 227° Southwest  Level Estimated
Tue 06:43:00 AM 50.6503 141.0906 227° Southwest  Level Estimated
Tue 06:44:00 AM 50.5742 140.9628 227° Southwest  Level Estimated
Tue 06:45:00 AM 50.4979 140.8353 227° Southwest  Level Estimated
Tue 06:46:00 AM 50.4215 140.7083 227° Southwest  Level Estimated
Tue 06:47:00 AM 50.3450 140.5816 227° Southwest  Level Estimated
Tue 06:48:00 AM 50.2683 140.4554 226° Southwest  Level Estimated
Tue 06:49:00 AM 50.1915 140.3296 226° Southwest  Level Estimated
Tue 06:50:00 AM 50.1145 140.2042 226° Southwest  Level Estimated
Tue 06:51:00 AM 50.0374 140.0792 226° Southwest  Level Estimated
Tue 06:52:00 AM 49.9602 139.9546 226° Southwest  Level Estimated
Tue 06:53:00 AM 49.8829 139.8304 226° Southwest  Level Estimated
Tue 06:54:00 AM 49.8054 139.7065 226° Southwest  Level Estimated
Tue 06:55:00 AM 49.7278 139.5831 226° Southwest  Level Estimated
Tue 06:56:00 AM 49.6500 139.4601 226° Southwest  Level Estimated
Tue 06:57:00 AM 49.5722 139.3375 226° Southwest  Level Estimated
Tue 06:58:00 AM 49.4941 139.2152 226° Southwest  Level Estimated
Tue 06:59:00 AM 49.4160 139.0934 225° Southwest  Level Estimated
Tue 07:00:00 AM 49.3378 138.9719 225° Southwest  Level Estimated
Tue 07:01:00 AM 49.2594 138.8509 225° Southwest  Level Estimated
Tue 07:02:00 AM 49.1809 138.7302 225° Southwest  Level Estimated
Tue 07:03:00 AM 49.1022 138.6099 225° Southwest  Level Estimated
Tue 07:04:00 AM 49.0235 138.4899 225° Southwest  Level Estimated
Tue 07:05:00 AM 48.9446 138.3704 225° Southwest  Level Estimated
Tue 07:06:00 AM 48.8656 138.2512 225° Southwest  Level Estimated
Tue 07:07:00 AM 48.7864 138.1324 225° Southwest  Level Estimated
Tue 07:08:00 AM 48.7072 138.0140 225° Southwest  Level Estimated
Tue 07:09:00 AM 48.6278 137.8960 225° Southwest  Level Estimated
Tue 07:10:00 AM 48.5483 137.7783 224° Southwest  Level Estimated
Tue 07:11:00 AM 48.4687 137.6610 224° Southwest  Level Estimated
Tue 07:12:00 AM 48.3889 137.5440 224° Southwest  Level Estimated
Tue 07:13:00 AM 48.3091 137.4275 224° Southwest  Level Estimated
Tue 07:14:00 AM 48.2291 137.3112 224° Southwest  Level Estimated
Tue 07:15:00 AM 48.1490 137.1954 224° Southwest  Level Estimated
Tue 07:16:00 AM 48.0688 137.0799 224° Southwest  Level Estimated
Tue 07:17:00 AM 47.9885 136.9648 224° Southwest  Level Estimated
Tue 07:18:00 AM 47.9081 136.8500 224° Southwest  Level Estimated
Tue 07:19:00 AM 47.8275 136.7356 224° Southwest  Level Estimated
Tue 07:20:00 AM 47.7469 136.6216 224° Southwest  Level Estimated
Tue 07:21:00 AM 47.6661 136.5079 223° Southwest  Level Estimated
Tue 07:22:00 AM 47.5852 136.3945 223° Southwest  Level Estimated
Tue 07:23:00 AM 47.5042 136.2815 223° Southwest  Level Estimated
Tue 07:24:00 AM 47.4231 136.1689 223° Southwest  Level Estimated
Tue 07:25:00 AM 47.3419 136.0566 223° Southwest  Level Estimated
Tue 07:26:00 AM 47.2606 135.9446 223° Southwest  Level Estimated
Tue 07:27:00 AM 47.1791 135.8330 223° Southwest  Level Estimated
Tue 07:28:00 AM 47.0976 135.7217 223° Southwest  Level Estimated
Tue 07:29:00 AM 47.0159 135.6108 223° Southwest  Level Estimated
Tue 07:30:00 AM 46.9342 135.5002 223° Southwest  Level Estimated
Tue 07:31:00 AM 46.8523 135.3900 223° Southwest  Level Estimated
Tue 07:32:00 AM 46.7704 135.2800 223° Southwest  Level Estimated
Tue 07:33:00 AM 46.6883 135.1704 223° Southwest  Level Estimated
Tue 07:34:00 AM 46.6061 135.0612 222° Southwest  Level Estimated
Tue 07:35:00 AM 46.5238 134.9523 222° Southwest  Level Estimated
Tue 07:36:00 AM 46.4414 134.8437 222° Southwest  Level Estimated
Tue 07:37:00 AM 46.3590 134.7354 222° Southwest  Level Estimated
Tue 07:38:00 AM 46.2764 134.6275 222° Southwest  Level Estimated
Tue 07:39:00 AM 46.1937 134.5199 222° Southwest  Level Estimated
Tue 07:40:00 AM 46.1109 134.4126 222° Southwest  Level Estimated
Tue 07:41:00 AM 46.0280 134.3056 222° Southwest  Level Estimated
Tue 07:42:00 AM 45.9450 134.1990 222° Southwest  Level Estimated
Tue 07:43:00 AM 45.8619 134.0926 222° Southwest  Level Estimated
Tue 07:44:00 AM 45.7787 133.9866 222° Southwest  Level Estimated
Tue 07:45:00 AM 45.6954 133.8809 222° Southwest  Level Estimated
Tue 07:46:00 AM 45.6120 133.7755 221° Southwest  Level Estimated
Tue 07:47:00 AM 45.5286 133.6705 221° Southwest  Level Estimated
Tue 07:48:00 AM 45.4450 133.5657 221° Southwest  Level Estimated
Tue 07:49:00 AM 45.3613 133.4613 221° Southwest  Level Estimated
Tue 07:50:00 AM 45.2775 133.3571 221° Southwest  Level Estimated
Tue 07:51:00 AM 45.1937 133.2533 221° Southwest  Level Estimated
Tue 07:52:00 AM 45.1097 133.1498 221° Southwest  Level Estimated
Tue 07:53:00 AM 45.0257 133.0466 221° Southwest  Level Estimated
Tue 07:54:00 AM 44.9416 132.9437 221° Southwest  Level Estimated
Tue 07:55:00 AM 44.8573 132.8410 221° Southwest  Level Estimated
Tue 07:56:00 AM 44.7730 132.7387 221° Southwest  Level Estimated
Tue 07:57:00 AM 44.6886 132.6367 221° Southwest  Level Estimated
Tue 07:58:00 AM 44.6041 132.5350 221° Southwest  Level Estimated
Tue 07:59:00 AM 44.5195 132.4336 221° Southwest  Level Estimated
Tue 08:00:00 AM 44.4348 132.3324 220° Southwest  Level Estimated
Tue 08:01:00 AM 44.3500 132.2316 220° Southwest  Level Estimated
Tue 08:02:00 AM 44.2652 132.1311 220° Southwest  Level Estimated
Tue 08:03:00 AM 44.1802 132.0308 220° Southwest  Level Estimated
Tue 08:04:00 AM 44.0952 131.9308 220° Southwest  Level Estimated
Tue 08:05:00 AM 44.0101 131.8311 220° Southwest  Level Estimated
Tue 08:06:00 AM 43.9249 131.7318 220° Southwest  Level Estimated
Tue 08:07:00 AM 43.8396 131.6326 220° Southwest  Level Estimated
Tue 08:08:00 AM 43.7542 131.5338 220° Southwest  Level Estimated
Tue 08:09:00 AM 43.6687 131.4353 220° Southwest  Level Estimated
Tue 08:10:00 AM 43.5831 131.3370 220° Southwest  Level Estimated
Tue 08:11:00 AM 43.4975 131.2390 220° Southwest  Level Estimated
Tue 08:12:00 AM 43.4118 131.1413 220° Southwest  Level Estimated
Tue 08:13:00 AM 43.3260 131.0439 220° Southwest  Level Estimated
Tue 08:14:00 AM 43.2401 130.9467 220° Southwest  Level Estimated
Tue 08:15:00 AM 43.1541 130.8499 219° Southwest  Level Estimated
Tue 08:16:00 AM 43.0681 130.7533 219° Southwest  Level Estimated
Tue 08:17:00 AM 42.9820 130.6569 219° Southwest  Level Estimated
Tue 08:18:00 AM 42.8957 130.5608 219° Southwest  Level Estimated
Tue 08:19:00 AM 42.8095 130.4650 219° Southwest  Level Estimated
Tue 08:20:00 AM 42.7231 130.3695 219° Southwest  Level Estimated
Tue 08:21:00 AM 42.6366 130.2742 219° Southwest  Level Estimated
Tue 08:22:00 AM 42.5501 130.1792 219° Southwest  Level Estimated
Tue 08:23:00 AM 42.4635 130.0845 219° Southwest  Level Estimated
Tue 08:24:00 AM 42.3768 129.9900 219° Southwest  Level Estimated
Tue 08:25:00 AM 42.2901 129.8958 219° Southwest  Level Estimated
Tue 08:26:00 AM 42.2032 129.8018 219° Southwest  Level Estimated
Tue 08:27:00 AM 42.1163 129.7081 219° Southwest  Level Estimated
Tue 08:28:00 AM 42.0293 129.6147 219° Southwest  Level Estimated
Tue 08:29:00 AM 41.9422 129.5215 219° Southwest  Level Estimated
Tue 08:30:00 AM 41.8551 129.4286 218° Southwest  Level Estimated
Tue 08:31:00 AM 41.7679 129.3359 218° Southwest  Level Estimated
Tue 08:32:00 AM 41.6806 129.2435 218° Southwest  Level Estimated
Tue 08:33:00 AM 41.5932 129.1513 218° Southwest  Level Estimated
Tue 08:34:00 AM 41.5058 129.0594 218° Southwest  Level Estimated
Tue 08:35:00 AM 41.4183 128.9677 218° Southwest  Level Estimated
Tue 08:36:00 AM 41.3307 128.8763 218° Southwest  Level Estimated
Tue 08:37:00 AM 41.2431 128.7851 218° Southwest  Level Estimated
Tue 08:38:00 AM 41.1553 128.6941 218° Southwest  Level Estimated
Tue 08:39:00 AM 41.0675 128.6034 218° Southwest  Level Estimated
Tue 08:40:00 AM 40.9797 128.5130 218° Southwest  Level Estimated
Tue 08:41:00 AM 40.8917 128.4227 218° Southwest  Level Estimated
Tue 08:42:00 AM 40.8037 128.3328 218° Southwest  Level Estimated
Tue 08:43:00 AM 40.7156 128.2430 218° Southwest  Level Estimated
Tue 08:44:00 AM 40.6275 128.1535 218° Southwest  Level Estimated
Tue 08:45:00 AM 40.5393 128.0643 218° Southwest  Level Estimated
Tue 08:46:00 AM 40.4510 127.9752 218° Southwest  Level Estimated
Tue 08:47:00 AM 40.3626 127.8864 217° Southwest  Level Estimated
Tue 08:48:00 AM 40.2742 127.7979 217° Southwest  Level Estimated
Tue 08:49:00 AM 40.1857 127.7095 217° Southwest  Level Estimated
Tue 08:50:00 AM 40.0971 127.6214 217° Southwest  Level Estimated
Tue 08:51:00 AM 40.0085 127.5335 217° Southwest  Level Estimated
Tue 08:52:00 AM 39.9198 127.4459 217° Southwest  Level Estimated
Tue 08:53:00 AM 39.8311 127.3585 217° Southwest  Level Estimated
Tue 08:54:00 AM 39.7423 127.2713 217° Southwest  Level Estimated
Tue 08:55:00 AM 39.6534 127.1843 217° Southwest  Level Estimated
Tue 08:56:00 AM 39.5644 127.0976 217° Southwest  Level Estimated
Tue 08:57:00 AM 39.4754 127.0110 217° Southwest  Level Estimated
Tue 08:58:00 AM 39.3863 126.9247 217° Southwest  Level Estimated
Tue 08:59:00 AM 39.2972 126.8387 217° Southwest  Level Estimated
Tue 09:00:00 AM 39.2080 126.7528 217° Southwest  Level Estimated
Tue 09:01:00 AM 39.1187 126.6671 217° Southwest  Level Estimated
Tue 09:02:00 AM 39.0294 126.5817 217° Southwest  Level Estimated
Tue 09:03:00 AM 38.9400 126.4965 217° Southwest  Level Estimated
Tue 09:04:00 AM 38.8506 126.4115 217° Southwest  Level Estimated
Tue 09:05:00 AM 38.7610 126.3267 216° Southwest  Level Estimated
Tue 09:06:00 AM 38.6715 126.2422 216° Southwest  Level Estimated
Tue 09:07:00 AM 38.5818 126.1578 216° Southwest  Level Estimated
Tue 09:08:00 AM 38.4921 126.0736 216° Southwest  Level Estimated
Tue 09:09:00 AM 38.4024 125.9897 216° Southwest  Level Estimated
Tue 09:10:00 AM 38.3125 125.9060 216° Southwest  Level Estimated
Tue 09:11:00 AM 38.2227 125.8224 216° Southwest  Level Estimated
Tue 09:12:00 AM 38.1327 125.7391 216° Southwest  Level Estimated
Tue 09:13:00 AM 38.0427 125.6560 216° Southwest  Level Estimated
Tue 09:14:00 AM 37.9527 125.5731 216° Southwest  Level Estimated
Tue 09:15:00 AM 37.8626 125.4904 216° Southwest  Level Estimated
Tue 09:16:00 AM 37.7724 125.4079 216° Southwest  Level Estimated
Tue 09:17:00 AM 37.6822 125.3256 216° Southwest  Level Estimated
Tue 09:18:00 AM 37.5919 125.2435 216° Southwest  Level Estimated
Tue 09:19:00 AM 37.5015 125.1616 216° Southwest  Level Estimated
Tue 09:20:00 AM 37.4112 125.0799 216° Southwest  Level Estimated
Tue 09:21:00 AM 37.3207 124.9984 216° Southwest  Level Estimated
Tue 09:22:00 AM 37.2302 124.9170 216° Southwest  Level Estimated
Tue 09:23:00 AM 37.1396 124.8359 216° Southwest  Level Estimated
Tue 09:24:00 AM 37.0490 124.7550 215° Southwest  Level Estimated
Tue 09:25:00 AM 36.9583 124.6743 215° Southwest  Level Estimated
Tue 09:26:00 AM 36.8676 124.5937 215° Southwest  Level Estimated
Tue 09:27:00 AM 36.7768 124.5134 215° Southwest  Level Estimated
Tue 09:28:00 AM 36.6860 124.4332 215° Southwest  Level Estimated
Tue 09:29:00 AM 36.5951 124.3532 215° Southwest  Level Estimated
Tue 09:30:00 AM 36.5042 124.2735 215° Southwest  Level Estimated
Tue 09:31:00 AM 36.4132 124.1939 215° Southwest  Level Estimated
Tue 09:32:00 AM 36.3221 124.1145 215° Southwest  Level Estimated
Tue 09:33:00 AM 36.2310 124.0352 215° Southwest  Level Estimated
Tue 09:34:00 AM 36.1399 123.9562 215° Southwest  Level Estimated
Tue 09:35:00 AM 36.0486 123.8773 215° Southwest  Level Estimated
Tue 09:36:00 AM 35.9574 123.7987 215° Southwest  Level Estimated
Tue 09:37:00 AM 35.8661 123.7202 215° Southwest  Level Estimated
Tue 09:38:00 AM 35.7747 123.6419 215° Southwest  Level Estimated
Tue 09:39:00 AM 35.6833 123.5638 215° Southwest  Level Estimated
Tue 09:40:00 AM 35.5919 123.4858 215° Southwest  Level Estimated
Tue 09:41:00 AM 35.5003 123.4080 215° Southwest  Level Estimated
Tue 09:42:00 AM 35.4088 123.3304 215° Southwest  Level Estimated
Tue 09:43:00 AM 35.3172 123.2530 215° Southwest  Level Estimated
Tue 09:44:00 AM 35.2255 123.1758 215° Southwest  Level Estimated
Tue 09:45:00 AM 35.1338 123.0987 215° Southwest  Level Estimated
Tue 09:46:00 AM 35.0420 123.0218 214° Southwest  Level Estimated
Tue 09:47:00 AM 34.9502 122.9451 214° Southwest  Level Estimated
Tue 09:48:00 AM 34.8584 122.8685 214° Southwest  Level Estimated
Tue 09:49:00 AM 34.7665 122.7921 214° Southwest  Level Estimated
Tue 09:50:00 AM 34.6745 122.7159 214° Southwest  Level Estimated
Tue 09:51:00 AM 34.5825 122.6399 214° Southwest  Level Estimated
Tue 09:52:00 AM 34.4905 122.5640 214° Southwest  Level Estimated
Tue 09:53:00 AM 34.3984 122.4883 214° Southwest  Level Estimated
Tue 09:54:00 AM 34.3063 122.4128 214° Southwest  Level Estimated
Tue 09:55:00 AM 34.2141 122.3374 214° Southwest  Level Estimated
Tue 09:56:00 AM 34.1219 122.2622 214° Southwest  Level Estimated
Tue 09:57:00 AM 34.0296 122.1871 214° Southwest  Level Estimated
Tue 09:58:00 AM 33.9373 122.1123 214° Southwest  Level Estimated
Tue 09:59:00 AM 33.8449 122.0375 214° Southwest  Level Estimated
Tue 10:00:00 AM 33.7525 121.9630 214° Southwest  Level Estimated
Tue 10:01:00 AM 33.6600 121.8886 214° Southwest  Level Estimated
Tue 10:02:00 AM 33.5676 121.8143 214° Southwest  Level Estimated
Tue 10:03:00 AM 33.4750 121.7403 214° Southwest  Level Estimated
Tue 10:04:00 AM 33.3824 121.6663 214° Southwest  Level Estimated
Tue 10:05:00 AM 33.2898 121.5926 214° Southwest  Level Estimated
Tue 10:06:00 AM 33.1971 121.5190 214° Southwest  Level Estimated
Tue 10:07:00 AM 33.1044 121.4455 214° Southwest  Level Estimated
Tue 10:08:00 AM 33.0116 121.3722 214° Southwest  Level Estimated
Tue 10:09:00 AM 32.9188 121.2991 213° Southwest  Level Estimated
Tue 10:10:00 AM 32.8260 121.2261 213° Southwest  Level Estimated
Tue 10:11:00 AM 32.7331 121.1532 213° Southwest  Level Estimated
Tue 10:12:00 AM 32.6402 121.0806 213° Southwest  Level Estimated
Tue 10:13:00 AM 32.5472 121.0080 213° Southwest  Level Estimated
Tue 10:14:00 AM 32.4542 120.9356 213° Southwest  Level Estimated
Tue 10:15:00 AM 32.3611 120.8634 213° Southwest  Level Estimated
Tue 10:16:00 AM 32.2680 120.7913 213° Southwest  Level Estimated
Tue 10:17:00 AM 32.1749 120.7193 213° Southwest  Level Estimated
Tue 10:18:00 AM 32.0817 120.6476 213° Southwest  Level Estimated
Tue 10:19:00 AM 31.9885 120.5759 213° Southwest  Level Estimated
Tue 10:20:00 AM 31.8952 120.5044 213° Southwest  Level Estimated
Tue 10:21:00 AM 31.8019 120.4330 213° Southwest  Level Estimated
Tue 10:22:00 AM 31.7086 120.3618 213° Southwest  Level Estimated
Tue 10:23:00 AM 31.6152 120.2908 213° Southwest  Level Estimated
Tue 10:24:00 AM 31.5218 120.2198 213° Southwest  Level Estimated
Tue 10:25:00 AM 31.4283 120.1491 213° Southwest  Level Estimated
Tue 10:26:00 AM 31.3349 120.0784 213° Southwest  Level Estimated
Tue 10:27:00 AM 31.2413 120.0079 213° Southwest  Level Estimated
Tue 10:28:00 AM 31.1478 119.9376 213° Southwest  Level Estimated
Tue 10:29:00 AM 31.0541 119.8673 213° Southwest  Level Estimated
Tue 10:30:00 AM 30.9605 119.7972 213° Southwest  Level Estimated
Tue 10:31:00 AM 30.8668 119.7273 213° Southwest  Level Estimated
Tue 10:32:00 AM 30.7731 119.6575 213° Southwest  Level Estimated
Tue 10:33:00 AM 30.6793 119.5878 213° Southwest  Level Estimated
Tue 10:34:00 AM 30.5855 119.5183 213° Southwest  Level Estimated
Tue 10:35:00 AM 30.4917 119.4489 213° Southwest  Level Estimated
Tue 10:36:00 AM 30.3978 119.3796 212° Southwest  Level Estimated
Tue 10:37:00 AM 30.3039 119.3104 212° Southwest  Level Estimated
Tue 10:38:00 AM 30.2100 119.2414 212° Southwest  Level Estimated
Tue 10:39:00 AM 30.1160 119.1725 212° Southwest  Level Estimated
Tue 10:40:00 AM 30.0220 119.1038 212° Southwest  Level Estimated
Tue 10:41:00 AM 29.9279 119.0352 212° Southwest  Level Estimated
Tue 10:42:00 AM 29.8338 118.9667 212° Southwest  Level Estimated
Tue 10:43:00 AM 29.7397 118.8983 212° Southwest  Level Estimated
Tue 10:44:00 AM 29.6455 118.8301 212° Southwest  Level Estimated
Tue 10:45:00 AM 29.5514 118.7620 212° Southwest  Level Estimated
Tue 10:46:00 AM 29.4571 118.6940 212° Southwest  Level Estimated
Tue 10:47:00 AM 29.3629 118.6262 212° Southwest  Level Estimated
Tue 10:48:00 AM 29.2686 118.5585 212° Southwest  Level Estimated
Tue 10:49:00 AM 29.1742 118.4909 212° Southwest  Level Estimated
Tue 10:50:00 AM 29.0799 118.4234 212° Southwest  Level Estimated
Tue 10:51:00 AM 28.9855 118.3560 212° Southwest  Level Estimated
Tue 10:52:00 AM 28.8911 118.2888 212° Southwest  Level Estimated
Tue 10:53:00 AM 28.7966 118.2217 212° Southwest  Level Estimated
Tue 10:54:00 AM 28.7021 118.1547 212° Southwest  Level Estimated
Tue 10:55:00 AM 28.6076 118.0879 212° Southwest  Level Estimated
Tue 10:56:00 AM 28.5130 118.0211 212° Southwest  Level Estimated
Tue 10:57:00 AM 28.4184 117.9545 212° Southwest  Level Estimated
Tue 10:58:00 AM 28.3238 117.8880 212° Southwest  Level Estimated
Tue 10:59:00 AM 28.2291 117.8216 212° Southwest  Level Estimated
Tue 11:00:00 AM 28.1344 117.7553 212° Southwest  Level Estimated
Tue 11:01:00 AM 28.0397 117.6892 212° Southwest  Level Estimated
Tue 11:02:00 AM 27.9450 117.6232 212° Southwest  Level Estimated
Tue 11:03:00 AM 27.8502 117.5572 212° Southwest  Level Estimated
Tue 11:04:00 AM 27.7554 117.4914 212° Southwest  Level Estimated
Tue 11:05:00 AM 27.6605 117.4258 212° Southwest  Level Estimated
Tue 11:06:00 AM 27.5656 117.3602 211° Southwest  Level Estimated
Tue 11:07:00 AM 27.4707 117.2947 211° Southwest  Level Estimated
Tue 11:08:00 AM 27.3758 117.2294 211° Southwest  Level Estimated
Tue 11:09:00 AM 27.2808 117.1641 211° Southwest  Level Estimated
Tue 11:10:00 AM 27.1858 117.0990 211° Southwest  Level Estimated
Tue 11:11:00 AM 27.0908 117.0340 211° Southwest  Level Estimated
Tue 11:12:00 AM 26.9957 116.9691 211° Southwest  Level Estimated
Tue 11:13:00 AM 26.9006 116.9043 211° Southwest  Level Estimated
Tue 11:14:00 AM 26.8055 116.8396 211° Southwest  Level Estimated
Tue 11:15:00 AM 26.7104 116.7750 211° Southwest  Level Estimated
Tue 11:16:00 AM 26.6152 116.7105 211° Southwest  Level Estimated
Tue 11:17:00 AM 26.5200 116.6462 211° Southwest  Level Estimated
Tue 11:18:00 AM 26.4247 116.5819 211° Southwest  Level Estimated
Tue 11:19:00 AM 26.3295 116.5178 211° Southwest  Level Estimated
Tue 11:20:00 AM 26.2342 116.4537 211° Southwest  Level Estimated
Tue 11:21:00 AM 26.1388 116.3898 211° Southwest  Level Estimated
Tue 11:22:00 AM 26.0435 116.3260 211° Southwest  Level Estimated
Tue 11:23:00 AM 25.9481 116.2622 211° Southwest  Level Estimated
Tue 11:24:00 AM 25.8527 116.1986 211° Southwest  Level Estimated
Tue 11:25:00 AM 25.7573 116.1351 211° Southwest  Level Estimated
Tue 11:26:00 AM 25.6618 116.0717 211° Southwest  Level Estimated
Tue 11:27:00 AM 25.5663 116.0083 211° Southwest  Level Estimated
Tue 11:28:00 AM 25.4708 115.9451 211° Southwest  Level Estimated
Tue 11:29:00 AM 25.3753 115.8820 211° Southwest  Level Estimated
Tue 11:30:00 AM 25.2797 115.8190 211° Southwest  Level Estimated
Tue 11:31:00 AM 25.1841 115.7560 211° Southwest  Level Estimated
Tue 11:32:00 AM 25.0885 115.6932 211° Southwest  Level Estimated
Tue 11:33:00 AM 24.9928 115.6305 211° Southwest  Level Estimated
Tue 11:34:00 AM 24.8971 115.5679 211° Southwest  Level Estimated
Tue 11:35:00 AM 24.8014 115.5053 211° Southwest  Level Estimated
Tue 11:36:00 AM 24.7057 115.4429 211° Southwest  Level Estimated
Tue 11:37:00 AM 24.6100 115.3806 211° Southwest  Level Estimated
Tue 11:38:00 AM 24.5142 115.3183 211° Southwest  Level Estimated
Tue 11:39:00 AM 24.4184 115.2562 211° Southwest  Level Estimated
Tue 11:40:00 AM 24.3225 115.1941 211° Southwest  Level Estimated
Tue 11:41:00 AM 24.2267 115.1322 211° Southwest  Level Estimated
Tue 11:42:00 AM 24.1308 115.0703 210° Southwest  Level Estimated
Tue 11:43:00 AM 24.0349 115.0085 210° Southwest  Level Estimated
Tue 11:44:00 AM 23.9390 114.9469 210° Southwest  Level Estimated
Tue 11:45:00 AM 23.8430 114.8853 210° Southwest  Level Estimated
Tue 11:46:00 AM 23.7470 114.8238 210° Southwest  Level Estimated
Tue 11:47:00 AM 23.6510 114.7623 210° Southwest  Level Estimated
Tue 11:48:00 AM 23.5550 114.7010 210° Southwest  Level Estimated
Tue 11:49:00 AM 23.4590 114.6398 210° Southwest  Level Estimated
Tue 11:50:00 AM 23.3629 114.5787 210° Southwest  Level Estimated
Tue 11:51:00 AM 23.2668 114.5176 210° Southwest  Level Estimated
Tue 11:52:00 AM 23.1707 114.4566 210° Southwest  Level Estimated
Tue 11:53:00 AM 23.0745 114.3958 210° Southwest  Level Estimated
Tue 11:54:00 AM 22.9783 114.3350 210° Southwest  Level Estimated
Tue 11:55:00 AM 22.8822 114.2743 210° Southwest  Level Estimated
Tue 11:56:00 AM 22.7859 114.2137 210° Southwest  Level Estimated
Tue 11:57:00 AM 22.6897 114.1531 210° Southwest  Level Estimated
Tue 11:58:00 AM 22.5934 114.0927 210° Southwest  Level Estimated
Tue 11:59:00 AM 22.4972 114.0323 210° Southwest  Level Estimated
Tue 12:00:00 PM 22.4008 113.9720 210° Southwest  Level Estimated
Tue 12:01:00 PM 22.3089 113.9146 210° Southwest  Level Estimated
Tue 12:02:00 PM 22.3089 113.9146 110° East  Level Estimated
Tue 12:03:00 PM 22.3089 113.9146 110° East  Level Estimated
Tue 12:04:00 PM 22.3089 113.9146 110° East  Level Estimated
Tue 12:05:00 PM 22.3089 113.9146 110° East  Level Estimated
Tue 12:06:00 PM 22.3089 113.9146 110° East  Level Estimated
Tue 12:07:00 PM 22.3089 113.9146 110° East  Level Estimated
Tue 12:08:00 PM 22.3089 113.9146 110° East  Level Estimated
Tue 12:09:00 PM 22.3089 113.9146 110° East  Level Estimated
Tue 12:10:00 PM 22.3089 113.9146 110° East  Level Estimated
Tue 12:11:00 PM 22.3089 113.9146 110° East  Level Estimated
Tue 12:12:00 PM 22.3089 113.9146 110° East  Level Estimated
Tue 12:13:00 PM 22.3089 113.9146 110° East  Level Estimated
Tue 12:14:00 PM 22.3089 113.9146 110° East  Level Estimated
Tue 12:15:00 PM 22.3089 113.9146 110° East  Level Estimated
Tue 12:16:00 PM 22.3089 113.9146 110° East  Level Estimated
Tue 12:17:00 PM 22.3089 113.9146 110° East  Level Estimated

Login

Don't have an account? Register now (free) for customized features, flight alerts, and more!